Time;durP1;ratioP1;P1;durP2;ratioP2;P2;SDS_P1;SDS_P2;PMS_P1;PMS_P2;Temp;Humidity;BMP_temperature;BMP_pressure;BME280_temperature;BME280_humidity;BME280_pressure;Samples;Min_cycle;Max_cycle;Signal;HPM_P1;HPM_P2
2022/05/27 00:00:48;;;;;;;9.73;9.13;;;18.40;67.50;;;;;;5028204;28;20033;-80
2022/05/27 00:03:15;;;;;;;9.93;9.23;;;18.50;67.30;;;;;;5029659;28;20045;-80
2022/05/27 00:05:41;;;;;;;9.63;8.93;;;18.50;67.10;;;;;;5028768;28;20472;-80
2022/05/27 00:08:08;;;;;;;9.90;9.30;;;18.60;66.80;;;;;;5009646;28;20044;-80
2022/05/27 00:10:34;;;;;;;9.63;9.02;;;18.50;67.00;;;;;;5026309;28;20041;-80
2022/05/27 00:13:00;;;;;;;9.55;8.95;;;18.50;67.50;;;;;;5026855;28;20033;-80
2022/05/27 00:15:26;;;;;;;9.80;9.18;;;18.40;67.80;;;;;;5012948;28;20403;-80
2022/05/27 00:17:52;;;;;;;9.93;9.15;;;18.40;67.70;;;;;;5028960;28;20367;-80
2022/05/27 00:20:18;;;;;;;9.98;9.25;;;18.40;67.80;;;;;;5025769;28;20498;-80
2022/05/27 00:22:44;;;;;;;10.07;9.40;;;18.40;67.70;;;;;;5028948;28;20045;-80
2022/05/27 00:25:10;;;;;;;10.15;9.35;;;18.30;68.20;;;;;;5026707;28;20028;-80
2022/05/27 00:27:37;;;;;;;10.10;9.45;;;18.30;68.30;;;;;;5030192;28;20033;-80
2022/05/27 00:30:03;;;;;;;10.13;9.32;;;18.20;68.50;;;;;;5027942;28;20033;-80
2022/05/27 00:32:29;;;;;;;9.73;9.13;;;18.30;68.50;;;;;;5028666;28;20030;-79
2022/05/27 00:34:55;;;;;;;10.07;9.43;;;18.20;68.70;;;;;;5008692;28;20037;-80
2022/05/27 00:37:22;;;;;;;10.20;9.60;;;18.20;68.60;;;;;;5028071;28;20056;-80
2022/05/27 00:39:48;;;;;;;10.80;10.00;;;18.30;68.30;;;;;;5028028;28;20030;-80
2022/05/27 00:42:14;;;;;;;10.07;9.38;;;18.30;68.30;;;;;;5028948;28;20407;-80
2022/05/27 00:44:40;;;;;;;9.80;9.30;;;18.30;68.70;;;;;;5008931;28;20044;-80
2022/05/27 00:47:11;;;;;;;10.50;9.60;;;18.20;68.60;;;;;;5028154;28;20049;-80
2022/05/27 00:49:45;;;;;;;10.10;9.40;;;18.20;68.60;;;;;;5006089;28;20045;-80
2022/05/27 00:52:12;;;;;;;10.15;9.25;;;18.30;68.50;;;;;;5026612;28;20030;-80
2022/05/27 00:54:40;;;;;;;10.60;9.65;;;18.20;68.70;;;;;;5008779;28;20041;-80
2022/05/27 00:57:15;;;;;;;9.93;9.23;;;18.20;68.60;;;;;;5010937;28;20384;-80
2022/05/27 00:59:49;;;;;;;9.98;9.25;;;18.10;69.00;;;;;;5009585;28;20037;-80
2022/05/27 01:02:16;;;;;;;10.27;9.48;;;18.10;69.00;;;;;;5011754;28;20053;-80
2022/05/27 01:04:42;;;;;;;9.75;9.05;;;18.10;68.90;;;;;;5009223;28;20025;-80
2022/05/27 01:07:08;;;;;;;9.90;9.20;;;18.10;68.80;;;;;;5028478;28;20033;-80
2022/05/27 01:09:36;;;;;;;9.60;9.00;;;18.10;68.60;;;;;;5015020;28;20487;-80
2022/05/27 01:12:25;;;;;;;9.63;9.02;;;18.00;69.10;;;;;;5030621;28;20025;-80
2022/05/27 01:14:57;;;;;;;9.50;8.80;;;17.90;69.70;;;;;;5029577;28;20037;-80
2022/05/27 01:17:41;;;;;;;9.77;9.02;;;17.90;69.90;;;;;;5030074;28;20490;-80
2022/05/27 01:20:26;;;;;;;10.25;9.38;;;17.80;70.70;;;;;;5032049;28;20025;-80
2022/05/27 01:23:10;;;;;;;9.90;9.20;;;17.80;69.80;;;;;;5040971;28;20034;-80
2022/05/27 01:26:03;;;;;;;10.23;9.10;;;18.00;69.20;;;;;;5030393;28;20032;-80
2022/05/27 01:28:42;;;;;;;10.18;9.38;;;18.10;68.80;;;;;;4987961;28;20401;-80
2022/05/27 01:31:35;;;;;;;9.82;9.02;;;18.10;68.60;;;;;;4974619;28;20366;-79
2022/05/27 01:34:28;;;;;;;10.23;9.40;;;18.20;68.60;;;;;;4976360;28;20046;-79
2022/05/27 01:37:28;;;;;;;9.73;8.85;;;18.10;68.40;;;;;;4991272;28;20053;-80
2022/05/27 01:40:35;;;;;;;9.60;8.90;;;18.20;68.10;;;;;;4968611;28;20066;-79
2022/05/27 01:43:41;;;;;;;9.32;8.65;;;18.10;68.20;;;;;;4881918;29;20047;-80
2022/05/27 01:46:16;;;;;;;10.13;9.15;;;18.10;68.30;;;;;;4886142;29;20601;-80
2022/05/27 01:49:09;;;;;;;10.13;9.32;;;18.20;68.20;;;;;;4896423;29;20044;-80
2022/05/27 01:51:35;;;;;;;10.55;9.52;;;18.20;68.20;;;;;;4908464;29;20044;-79
2022/05/27 01:54:07;;;;;;;9.70;8.93;;;18.20;68.20;;;;;;4901126;29;20067;-80
2022/05/27 01:56:43;;;;;;;9.70;9.10;;;18.20;68.10;;;;;;4895620;29;20507;-79
2022/05/27 01:59:22;;;;;;;9.95;9.15;;;18.10;68.30;;;;;;4891082;29;20048;-80
2022/05/27 02:01:52;;;;;;;9.65;8.95;;;18.10;68.20;;;;;;4874447;29;20372;-79
2022/05/27 02:04:46;;;;;;;10.00;9.15;;;18.10;68.30;;;;;;4876414;29;20041;-79
2022/05/27 02:07:17;;;;;;;9.27;8.68;;;18.00;68.60;;;;;;4881451;29;20483;-80
2022/05/27 02:09:44;;;;;;;;;;;18.00;68.80;;;;;;4883074;29;20161;-79
2022/05/27 02:12:14;;;;;;;8.75;8.15;;;18.00;69.00;;;;;;4897168;29;19915;-80
2022/05/27 02:15:02;;;;;;;9.03;8.37;;;17.90;68.80;;;;;;4881749;29;20029;-80
2022/05/27 02:17:44;;;;;;;9.15;8.55;;;18.00;69.00;;;;;;4938473;28;20039;-79
2022/05/27 02:20:17;;;;;;;9.65;9.02;;;18.00;68.60;;;;;;5004389;28;20033;-79
2022/05/27 02:22:48;;;;;;;9.02;8.52;;;18.10;68.60;;;;;;5031000;28;20029;-80
2022/05/27 02:25:19;;;;;;;9.60;8.80;;;18.10;68.40;;;;;;5029285;28;20022;-80
2022/05/27 02:28:11;;;;;;;9.88;9.18;;;18.10;68.60;;;;;;5012226;28;20034;-79
2022/05/27 02:30:39;;;;;;;9.25;8.65;;;18.00;68.90;;;;;;5028008;28;20037;-79
2022/05/27 02:35:59;;;;;;;9.48;8.68;;;17.90;69.30;;;;;;4997158;28;20057;-79
2022/05/27 02:38:29;;;;;;;9.93;9.05;;;18.00;69.20;;;;;;4991745;28;20406;-79
2022/05/27 02:41:04;;;;;;;9.32;8.60;;;17.90;69.50;;;;;;4992042;28;20037;-79
2022/05/27 02:43:44;;;;;;;9.85;9.00;;;17.90;69.50;;;;;;5010794;28;20032;-79
2022/05/27 02:46:37;;;;;;;9.18;8.27;;;18.00;69.30;;;;;;5009805;28;20034;-80
2022/05/27 02:49:18;;;;;;;9.30;8.50;;;17.80;69.90;;;;;;4994025;28;20018;-80
2022/05/27 02:51:47;;;;;;;8.35;7.75;;;17.80;70.30;;;;;;5011331;28;20030;-80
2022/05/27 02:54:51;;;;;;;9.15;8.48;;;17.80;70.20;;;;;;5010651;28;20034;-79
2022/05/27 02:57:41;;;;;;;9.57;8.77;;;17.80;69.70;;;;;;5010111;28;20046;-79
2022/05/27 03:00:13;;;;;;;9.07;8.27;;;17.80;70.30;;;;;;5012214;28;20034;-80
2022/05/27 03:02:40;;;;;;;9.25;8.45;;;17.60;70.90;;;;;;5030081;28;20028;-79
2022/05/27 03:05:06;;;;;;;9.43;8.63;;;17.60;71.00;;;;;;5030039;28;20025;-80
2022/05/27 03:07:56;;;;;;;9.27;8.65;;;17.50;70.90;;;;;;5029968;28;20396;-79
2022/05/27 03:10:26;;;;;;;9.23;8.63;;;17.60;71.00;;;;;;5060120;28;20050;-80
2022/05/27 03:13:17;;;;;;;9.07;8.52;;;17.60;71.10;;;;;;5011324;28;20053;-80
2022/05/27 03:15:55;;;;;;;8.95;8.43;;;17.50;71.10;;;;;;5041584;28;20033;-79
2022/05/27 03:18:40;;;;;;;8.55;7.95;;;17.60;71.30;;;;;;5031086;28;20041;-79
2022/05/27 03:21:13;;;;;;;8.23;7.53;;;17.60;71.10;;;;;;5046031;28;20038;-79
2022/05/27 03:23:49;;;;;;;8.38;7.78;;;17.70;70.80;;;;;;5029637;28;20041;-80
2022/05/27 03:26:25;;;;;;;9.18;8.43;;;17.60;71.30;;;;;;5028202;28;20365;-80
2022/05/27 03:29:14;;;;;;;9.10;8.40;;;17.50;71.50;;;;;;5029753;28;20369;-79
2022/05/27 03:31:57;;;;;;;9.43;8.50;;;17.50;71.20;;;;;;5021637;28;20030;-80
2022/05/27 03:34:49;;;;;;;8.70;7.93;;;17.40;71.90;;;;;;5027445;28;20037;-79
2022/05/27 03:37:27;;;;;;;10.02;7.75;;;17.40;72.40;;;;;;5028239;28;20029;-79
2022/05/27 03:40:11;;;;;;;8.73;8.02;;;17.20;72.80;;;;;;5029187;28;20040;-79
2022/05/27 03:42:37;;;;;;;8.18;7.22;;;17.30;72.80;;;;;;5007486;28;20030;-80
2022/05/27 03:45:07;;;;;;;8.70;8.00;;;17.20;74.10;;;;;;4996756;28;20038;-79
2022/05/27 03:47:33;;;;;;;9.27;8.40;;;17.10;73.20;;;;;;5030457;28;20033;-79
2022/05/27 03:49:59;;;;;;;9.43;8.48;;;17.00;73.20;;;;;;5009602;28;20037;-79
2022/05/27 03:52:27;;;;;;;9.45;8.43;;;16.90;73.60;;;;;;5029039;28;20025;-79
2022/05/27 03:54:53;;;;;;;8.70;7.90;;;16.90;73.80;;;;;;5008201;28;20041;-80
2022/05/27 03:57:20;;;;;;;8.60;7.85;;;16.80;74.10;;;;;;5030021;28;20476;-79
2022/05/27 03:59:47;;;;;;;9.88;8.13;;;16.70;74.50;;;;;;5026010;28;20064;-79
2022/05/27 04:02:13;;;;;;;9.38;8.50;;;16.60;74.90;;;;;;5028711;28;20038;-80
2022/05/27 04:04:39;;;;;;;10.48;8.32;;;16.50;75.40;;;;;;5029059;28;20475;-79
2022/05/27 04:07:05;;;;;;;9.40;8.40;;;16.50;75.60;;;;;;5027580;28;20224;-79
2022/05/27 04:09:33;;;;;;;10.05;9.07;;;16.50;75.80;;;;;;5012487;28;20044;-79
2022/05/27 04:11:59;;;;;;;9.63;8.70;;;16.60;75.50;;;;;;5028060;28;20041;-79
2022/05/27 04:14:25;;;;;;;10.85;9.13;;;16.70;75.20;;;;;;5009735;28;20078;-79
2022/05/27 04:16:51;;;;;;;10.27;9.20;;;16.70;75.20;;;;;;5025715;28;20439;-79
2022/05/27 04:19:18;;;;;;;14.57;8.82;;;16.70;75.10;;;;;;5009295;28;20034;-79
2022/05/27 04:21:44;;;;;;;9.55;8.57;;;16.60;75.40;;;;;;5028851;28;20464;-79
2022/05/27 04:24:10;;;;;;;9.38;8.50;;;16.60;75.70;;;;;;5027229;28;20384;-79
2022/05/27 04:26:36;;;;;;;10.77;9.25;;;16.60;75.60;;;;;;5027393;28;20033;-80
2022/05/27 04:29:02;;;;;;;9.30;8.50;;;16.60;75.70;;;;;;5028766;28;20369;-79
2022/05/27 04:31:29;;;;;;;9.55;8.63;;;16.50;75.80;;;;;;5028452;28;20034;-79
2022/05/27 04:33:55;;;;;;;10.57;8.23;;;16.50;75.90;;;;;;5028313;28;20030;-79
2022/05/27 04:36:21;;;;;;;9.15;8.25;;;16.50;75.50;;;;;;5030074;28;20037;-79
2022/05/27 04:38:48;;;;;;;10.57;8.60;;;16.40;75.30;;;;;;5028634;28;20381;-79
2022/05/27 04:41:14;;;;;;;14.10;8.90;;;16.40;74.70;;;;;;5028943;28;20025;-80
2022/05/27 04:43:40;;;;;;;11.05;9.10;;;16.40;74.10;;;;;;5030873;28;20033;-79
2022/05/27 04:46:06;;;;;;;9.40;8.50;;;16.30;73.40;;;;;;5014468;28;20025;-79
2022/05/27 04:48:32;;;;;;;14.93;8.77;;;16.20;73.40;;;;;;5016932;28;20048;-79
2022/05/27 04:50:58;;;;;;;11.80;8.50;;;16.20;73.40;;;;;;5030404;28;20045;-80
2022/05/27 04:53:25;;;;;;;9.05;8.20;;;16.10;73.20;;;;;;5013622;28;20419;-79
2022/05/27 04:55:51;;;;;;;11.90;8.60;;;16.10;73.30;;;;;;5030884;28;20037;-79
2022/05/27 04:58:17;;;;;;;9.82;8.68;;;16.00;73.50;;;;;;5031032;28;20045;-79
2022/05/27 05:00:45;;;;;;;13.65;8.82;;;16.20;73.30;;;;;;5031927;28;20021;-79
2022/05/27 05:03:13;;;;;;;9.75;8.75;;;16.20;72.70;;;;;;5014767;28;20029;-79
2022/05/27 05:05:39;;;;;;;12.88;8.40;;;16.30;72.20;;;;;;5013150;28;20044;-79
2022/05/27 05:08:06;;;;;;;16.27;9.10;;;16.20;72.50;;;;;;5030916;28;20025;-79
2022/05/27 05:10:32;;;;;;;14.95;8.75;;;16.20;72.80;;;;;;5030646;28;20049;-79
2022/05/27 05:12:59;;;;;;;10.52;8.70;;;16.20;71.80;;;;;;5030114;28;20041;-79
2022/05/27 05:15:25;;;;;;;17.90;9.02;;;16.20;72.00;;;;;;5032314;28;20033;-79
2022/05/27 05:17:51;;;;;;;10.18;8.65;;;16.10;71.80;;;;;;5012968;28;20407;-79
2022/05/27 05:20:20;;;;;;;18.33;9.52;;;16.00;72.30;;;;;;5030737;28;20044;-79
2022/05/27 05:22:46;;;;;;;14.13;9.10;;;16.10;72.40;;;;;;5032059;28;20519;-79
2022/05/27 05:25:12;;;;;;;17.35;9.40;;;16.00;72.20;;;;;;5029913;28;20037;-79
2022/05/27 05:27:39;;;;;;;10.32;8.98;;;16.10;72.40;;;;;;5033147;28;20029;-79
2022/05/27 05:30:06;;;;;;;14.35;9.13;;;16.10;72.10;;;;;;5015251;28;20427;-79
2022/05/27 05:32:32;;;;;;;12.48;9.07;;;16.10;71.50;;;;;;5031323;28;20041;-79
2022/05/27 05:34:59;;;;;;;9.70;8.70;;;16.10;71.70;;;;;;5031851;28;20032;-79
2022/05/27 05:37:26;;;;;;;15.07;8.60;;;16.10;71.90;;;;;;5012454;28;20049;-79
2022/05/27 05:39:52;;;;;;;18.10;9.10;;;16.10;71.90;;;;;;5030620;28;20040;-79
2022/05/27 05:42:18;;;;;;;11.77;9.05;;;16.10;71.50;;;;;;5032342;28;20037;-79
2022/05/27 05:44:45;;;;;;;12.40;8.43;;;16.00;71.80;;;;;;5031544;28;20505;-79
2022/05/27 05:47:11;;;;;;;12.90;8.90;;;16.00;71.90;;;;;;5031079;28;20485;-79
2022/05/27 05:49:37;;;;;;;10.13;8.82;;;16.10;71.70;;;;;;5031696;28;20486;-79
2022/05/27 05:52:03;;;;;;;14.98;8.95;;;16.20;71.70;;;;;;5013175;28;20050;-79
2022/05/27 05:54:30;;;;;;;12.52;9.10;;;16.20;71.40;;;;;;5032553;28;20044;-79
2022/05/27 05:56:59;;;;;;;13.07;8.30;;;16.30;71.30;;;;;;5031019;28;20052;-79
2022/05/27 05:59:25;;;;;;;12.52;9.02;;;16.40;70.80;;;;;;5031526;28;20032;-79
2022/05/27 06:01:51;;;;;;;10.15;8.85;;;16.30;71.00;;;;;;5030999;28;20045;-79
2022/05/27 06:04:17;;;;;;;13.45;9.00;;;16.20;71.00;;;;;;5030563;28;20034;-79
2022/05/27 06:06:43;;;;;;;14.90;9.10;;;16.30;71.20;;;;;;5030975;28;20034;-79
2022/05/27 06:09:09;;;;;;;12.50;8.85;;;16.20;71.20;;;;;;5030837;28;20029;-79
2022/05/27 06:11:38;;;;;;;13.98;9.18;;;16.20;71.40;;;;;;5027522;28;20041;-79
2022/05/27 06:14:04;;;;;;;15.80;8.88;;;16.20;71.70;;;;;;5029660;28;20022;-80
2022/05/27 06:16:30;;;;;;;14.68;9.30;;;16.20;71.70;;;;;;5007839;28;20045;-79
2022/05/27 06:18:57;;;;;;;15.45;9.35;;;16.20;71.60;;;;;;5045232;28;20038;-79
2022/05/27 06:21:23;;;;;;;10.60;8.68;;;16.40;71.60;;;;;;5014995;28;20415;-79
2022/05/27 06:23:49;;;;;;;11.35;8.50;;;16.40;71.20;;;;;;5029209;28;20033;-79
2022/05/27 06:26:15;;;;;;;15.18;8.68;;;16.40;71.00;;;;;;5030785;28;20026;-79
2022/05/27 06:34:24;;;;;;;13.32;9.35;;;16.30;71.20;;;;;;4950096;28;20036;-79
2022/05/27 06:37:14;;;;;;;11.82;8.63;;;16.50;71.80;;;;;;4937579;29;20062;-79
2022/05/27 06:39:41;;;;;;;13.20;8.73;;;16.60;70.70;;;;;;4950895;28;20069;-79
2022/05/27 06:42:08;;;;;;;14.98;7.78;;;16.70;70.30;;;;;;4938376;29;20031;-79
2022/05/27 06:44:35;;;;;;;9.10;8.18;;;16.60;69.70;;;;;;4947846;28;20043;-79
2022/05/27 06:47:02;;;;;;;10.60;7.78;;;16.60;69.90;;;;;;4943903;28;20046;-79
2022/05/27 06:49:28;;;;;;;12.23;8.55;;;16.60;69.90;;;;;;4936249;28;20035;-79
2022/05/27 06:51:54;;;;;;;14.68;8.38;;;16.60;70.10;;;;;;4934613;29;20035;-79
2022/05/27 06:54:21;;;;;;;15.45;8.52;;;16.70;70.10;;;;;;4923699;29;20035;-79
2022/05/27 06:56:50;;;;;;;12.00;8.10;;;16.70;69.90;;;;;;4952154;28;20039;-79
2022/05/27 06:59:17;;;;;;;10.85;7.53;;;16.90;69.80;;;;;;4937092;29;20051;-80
2022/05/27 07:01:43;;;;;;;10.15;7.68;;;17.00;69.80;;;;;;4936289;28;20406;-79
2022/05/27 07:04:09;;;;;;;15.57;8.77;;;17.20;68.00;;;;;;4933029;28;20148;-80
2022/05/27 07:06:37;;;;;;;9.60;8.23;;;17.10;67.90;;;;;;4953858;28;20038;-80
2022/05/27 07:09:06;;;;;;;11.45;8.43;;;17.20;68.20;;;;;;4944625;29;20050;-80
2022/05/27 07:11:33;;;;;;;19.38;9.85;;;17.20;67.80;;;;;;4972957;28;20633;-79
2022/05/27 07:13:59;;;;;;;12.57;8.80;;;17.20;67.90;;;;;;5010836;28;20025;-80
2022/05/27 07:16:27;;;;;;;9.35;8.43;;;17.20;67.90;;;;;;5029592;28;20083;-80
2022/05/27 07:18:54;;;;;;;10.27;8.70;;;17.30;67.60;;;;;;5027741;28;20052;-80
2022/05/27 07:21:20;;;;;;;14.50;9.05;;;17.40;67.40;;;;;;5029679;28;20495;-80
2022/05/27 07:23:46;;;;;;;10.75;8.35;;;17.30;67.70;;;;;;5008748;28;20045;-80
2022/05/27 07:26:13;;;;;;;9.88;8.50;;;17.40;67.20;;;;;;5010029;28;20041;-80
2022/05/27 07:28:39;;;;;;;14.65;8.95;;;17.40;67.60;;;;;;5029667;28;20026;-80
2022/05/27 07:31:05;;;;;;;12.10;8.60;;;17.40;67.40;;;;;;5027260;28;20025;-80
2022/05/27 07:33:31;;;;;;;13.43;8.90;;;17.30;67.90;;;;;;5030664;28;20063;-80
2022/05/27 07:35:57;;;;;;;11.27;8.52;;;17.40;67.70;;;;;;5029690;28;20593;-79
2022/05/27 07:38:23;;;;;;;10.23;8.38;;;17.40;67.30;;;;;;5029528;28;20033;-80
2022/05/27 07:40:49;;;;;;;14.48;8.75;;;17.40;67.00;;;;;;5029616;28;20446;-80
2022/05/27 07:43:15;;;;;;;12.95;8.80;;;17.50;67.30;;;;;;5027769;28;20049;-80
2022/05/27 07:45:42;;;;;;;11.38;8.50;;;17.60;66.60;;;;;;5028476;28;20026;-80
2022/05/27 07:48:09;;;;;;;12.15;9.30;;;17.60;66.40;;;;;;5011726;28;20593;-79
2022/05/27 07:50:35;;;;;;;12.23;9.10;;;17.60;65.90;;;;;;5010380;28;20032;-80
2022/05/27 07:53:02;;;;;;;11.07;8.43;;;17.70;65.90;;;;;;5012804;28;20384;-79
2022/05/27 07:55:28;;;;;;;12.48;9.30;;;17.70;65.70;;;;;;5026808;28;20021;-80
2022/05/27 07:57:54;;;;;;;12.73;8.70;;;17.70;65.70;;;;;;5028108;28;20033;-80
2022/05/27 08:00:25;;;;;;;9.10;8.30;;;17.60;65.90;;;;;;5028450;28;20032;-80
2022/05/27 08:02:51;;;;;;;14.73;9.55;;;17.60;65.80;;;;;;5010527;28;20375;-80
2022/05/27 08:05:19;;;;;;;9.90;8.90;;;17.60;65.90;;;;;;5026080;28;20037;-80
2022/05/27 08:07:45;;;;;;;9.90;8.93;;;17.70;66.00;;;;;;5010139;28;20464;-80
2022/05/27 08:10:13;;;;;;;11.70;9.00;;;17.70;65.80;;;;;;5027552;28;20408;-80
2022/05/27 08:12:40;;;;;;;10.38;8.75;;;17.70;65.60;;;;;;5011710;28;20041;-80
2022/05/27 08:15:08;;;;;;;11.95;8.90;;;17.60;65.50;;;;;;5026931;28;20311;-80
2022/05/27 08:17:35;;;;;;;10.05;8.90;;;17.70;65.60;;;;;;5025329;28;20022;-80
2022/05/27 08:20:03;;;;;;;10.52;8.45;;;17.70;64.70;;;;;;5009946;28;20029;-80
2022/05/27 08:22:29;;;;;;;9.50;8.60;;;17.70;64.50;;;;;;4992821;28;20030;-80
2022/05/27 08:24:55;;;;;;;11.27;9.00;;;17.80;64.00;;;;;;5026444;28;20403;-79
2022/05/27 08:27:21;;;;;;;12.00;9.10;;;17.70;64.20;;;;;;5030000;28;20029;-79
2022/05/27 08:29:48;;;;;;;10.32;9.13;;;17.50;64.80;;;;;;5028679;28;20064;-79
2022/05/27 08:32:14;;;;;;;12.00;9.15;;;17.50;65.30;;;;;;5008661;28;20045;-80
2022/05/27 08:40:19;;;;;;;11.13;9.38;;;17.80;63.90;;;;;;5026872;28;20034;-80
2022/05/27 08:43:18;;;;;;;13.15;9.48;;;17.80;64.00;;;;;;5028348;28;20030;-80
2022/05/27 08:45:56;;;;;;;9.82;8.93;;;18.00;63.70;;;;;;5029472;28;20045;-79
2022/05/27 08:48:22;;;;;;;11.20;9.43;;;17.90;63.60;;;;;;5028686;28;20384;-80
2022/05/27 08:50:56;;;;;;;10.50;9.50;;;17.90;64.70;;;;;;5009622;28;20021;-80
2022/05/27 08:53:51;;;;;;;9.88;8.88;;;17.90;64.10;;;;;;5010036;28;20026;-80
2022/05/27 08:59:31;;;;;;;9.80;8.48;;;17.80;64.40;;;;;;5028100;28;20056;-80
2022/05/27 09:02:35;;;;;;;9.10;8.18;;;17.90;63.80;;;;;;5027944;28;20395;-80
2022/05/27 09:05:17;;;;;;;9.32;8.40;;;17.70;63.40;;;;;;5028368;28;20503;-80
2022/05/27 09:07:43;;;;;;;;;;;17.80;63.70;;;;;;5027376;28;20040;-80
2022/05/27 09:10:13;;;;;;;8.32;7.63;;;18.00;62.70;;;;;;5025411;28;20388;-80
2022/05/27 09:12:58;;;;;;;9.68;9.02;;;18.30;64.30;;;;;;5024203;28;20037;-80
2022/05/27 09:15:45;;;;;;;9.75;8.95;;;18.70;60.20;;;;;;5029794;28;20037;-80
2022/05/27 09:18:34;;;;;;;9.80;9.00;;;18.80;60.00;;;;;;5030227;28;20400;-80
2022/05/27 09:21:38;;;;;;;9.27;8.68;;;18.60;60.30;;;;;;5027727;28;20047;-80
2022/05/27 09:24:56;;;;;;;8.73;8.23;;;18.60;60.30;;;;;;5027878;28;20105;-80
2022/05/27 09:27:28;;;;;;;9.13;8.30;;;18.60;60.90;;;;;;4953722;28;20066;-80
2022/05/27 09:29:59;;;;;;;9.25;8.70;;;18.80;60.60;;;;;;4956958;28;20051;-81
2022/05/27 09:32:30;;;;;;;9.82;9.02;;;19.00;60.00;;;;;;4936844;29;20506;-80
2022/05/27 09:34:57;;;;;;;9.77;9.18;;;19.20;61.60;;;;;;4948381;28;20043;-81
2022/05/27 09:37:31;;;;;;;9.82;9.13;;;19.40;59.10;;;;;;4939120;28;20049;-80
2022/05/27 09:39:59;;;;;;;9.95;9.27;;;19.60;58.40;;;;;;4936931;28;20498;-81
2022/05/27 09:42:47;;;;;;;10.40;9.80;;;19.60;59.20;;;;;;4922274;28;20047;-80
2022/05/27 09:45:13;;;;;;;10.23;9.52;;;19.60;58.20;;;;;;4957122;28;20079;-80
2022/05/27 09:47:40;;;;;;;10.10;9.60;;;19.60;57.80;;;;;;4940677;29;20046;-81
2022/05/27 09:50:28;;;;;;;10.40;9.65;;;19.70;58.90;;;;;;4940344;29;20059;-81
2022/05/27 09:52:58;;;;;;;10.18;9.57;;;19.80;57.90;;;;;;4956342;28;20150;-80
2022/05/27 09:55:26;;;;;;;10.57;9.90;;;19.80;58.50;;;;;;4938930;28;20047;-80
2022/05/27 09:58:00;;;;;;;10.35;9.68;;;19.70;58.00;;;;;;4953332;28;20058;-80
2022/05/27 10:00:37;;;;;;;10.15;9.38;;;19.60;58.10;;;;;;4925700;28;20376;-81
2022/05/27 10:03:22;;;;;;;9.70;9.20;;;19.50;58.30;;;;;;4990857;28;20064;-81
2022/05/27 10:05:53;;;;;;;10.10;9.50;;;19.50;58.50;;;;;;5008908;28;20037;-81
2022/05/27 10:08:29;;;;;;;10.88;10.27;;;19.60;59.50;;;;;;5011558;28;20573;-81
2022/05/27 10:11:33;;;;;;;9.85;9.15;;;19.80;58.50;;;;;;5011389;28;20058;-80
2022/05/27 10:14:10;;;;;;;11.00;10.20;;;20.00;58.30;;;;;;5008750;28;20388;-80
2022/05/27 10:16:38;;;;;;;9.98;9.30;;;19.80;57.80;;;;;;5010834;28;20045;-80
2022/05/27 10:19:15;;;;;;;10.70;9.65;;;19.70;58.40;;;;;;5009248;28;20034;-81
2022/05/27 10:21:51;;;;;;;10.88;10.07;;;19.70;58.50;;;;;;5043338;28;20026;-81
2022/05/27 10:24:29;;;;;;;11.10;10.30;;;19.80;59.00;;;;;;5011951;28;20029;-81
2022/05/27 10:27:04;;;;;;;10.23;9.65;;;19.90;58.60;;;;;;5011371;28;20025;-80
2022/05/27 10:29:31;;;;;;;10.65;10.00;;;20.00;57.90;;;;;;4994445;28;20484;-80
2022/05/27 10:31:59;;;;;;;10.82;10.10;;;20.00;57.80;;;;;;4991520;28;20038;-80
2022/05/27 10:34:37;;;;;;;10.38;9.60;;;19.90;58.40;;;;;;4992540;28;20042;-80
2022/05/27 10:37:28;;;;;;;10.80;10.05;;;19.90;58.50;;;;;;5025482;28;20057;-81
2022/05/27 10:40:32;;;;;;;10.10;9.60;;;20.00;57.80;;;;;;5008706;28;20044;-81
2022/05/27 10:43:29;;;;;;;9.93;9.32;;;19.90;58.30;;;;;;5009760;28;20022;-82
2022/05/27 10:45:56;;;;;;;10.90;10.20;;;20.00;58.60;;;;;;5016621;28;23638;-79
2022/05/27 10:48:22;;;;;;;10.52;9.90;;;20.20;58.90;;;;;;5030270;28;20472;-79
2022/05/27 10:51:01;;;;;;;11.23;10.52;;;20.50;57.70;;;;;;5027779;28;20404;-79
2022/05/27 10:53:56;;;;;;;11.10;10.27;;;20.60;57.00;;;;;;5030553;28;20025;-79
2022/05/27 10:56:41;;;;;;;11.80;11.00;;;20.60;57.60;;;;;;5025288;28;20037;-79
2022/05/27 11:02:12;;;;;;;10.95;10.25;;;20.70;57.10;;;;;;5031445;28;20037;-79
2022/05/27 11:04:41;;;;;;;10.82;10.05;;;20.70;58.20;;;;;;5030087;28;20037;-80
2022/05/27 11:07:21;;;;;;;11.73;11.10;;;20.80;58.20;;;;;;5028775;28;20028;-79
2022/05/27 11:10:05;;;;;;;11.65;10.85;;;20.90;57.00;;;;;;5029612;28;20034;-79
2022/05/27 11:15:52;;;;;;;11.90;11.10;;;20.90;57.90;;;;;;5031930;28;20041;-80
2022/05/27 11:18:42;;;;;;;11.35;10.52;;;21.10;57.80;;;;;;4969323;28;20054;-79
2022/05/27 11:21:49;;;;;;;11.65;10.95;;;21.10;56.30;;;;;;4980944;28;20523;-80
2022/05/27 11:24:53;;;;;;;11.40;10.80;;;20.90;56.40;;;;;;4937284;28;20046;-79
2022/05/27 11:27:29;;;;;;;11.55;10.85;;;20.80;56.90;;;;;;4969804;28;20046;-80
2022/05/27 11:29:58;;;;;;;11.25;10.65;;;20.90;57.00;;;;;;4969999;28;20054;-80
2022/05/27 11:32:47;;;;;;;11.60;10.90;;;21.00;56.40;;;;;;4974681;28;20027;-79
2022/05/27 11:35:39;;;;;;;11.30;10.60;;;20.80;56.80;;;;;;4936286;29;20046;-79
2022/05/27 11:38:17;;;;;;;11.45;10.55;;;20.80;57.80;;;;;;4968454;28;20038;-80
2022/05/27 11:40:58;;;;;;;11.57;10.85;;;21.00;57.00;;;;;;4953844;28;20391;-80
2022/05/27 11:43:46;;;;;;;11.55;10.95;;;21.20;56.70;;;;;;4969390;28;20039;-80
2022/05/27 11:46:47;;;;;;;11.02;10.38;;;21.00;56.20;;;;;;4975500;28;20050;-79
2022/05/27 11:49:35;;;;;;;11.95;11.25;;;20.90;57.70;;;;;;4985931;28;20042;-80
2022/05/27 11:52:01;;;;;;;11.68;10.88;;;21.00;57.00;;;;;;4968744;28;20051;-80
2022/05/27 11:54:46;;;;;;;11.85;10.90;;;21.00;57.30;;;;;;4973461;28;20035;-79
2022/05/27 11:57:16;;;;;;;11.73;11.10;;;21.20;57.80;;;;;;5046268;28;20045;-80
2022/05/27 12:00:01;;;;;;;12.00;11.15;;;21.30;57.70;;;;;;5029424;28;20487;-80
2022/05/27 12:02:35;;;;;;;11.43;10.80;;;21.20;56.20;;;;;;5028700;28;20400;-80
2022/05/27 12:05:25;;;;;;;11.75;11.15;;;21.00;57.20;;;;;;5027409;28;20018;-80
2022/05/27 12:08:35;;;;;;;12.30;11.52;;;21.10;57.70;;;;;;5029030;28;20037;-80
2022/05/27 12:11:25;;;;;;;11.80;11.20;;;21.30;57.10;;;;;;4990128;28;20046;-80
2022/05/27 12:13:56;;;;;;;12.23;11.63;;;21.20;55.60;;;;;;4956084;28;20305;-80
2022/05/27 12:16:27;;;;;;;11.02;10.32;;;21.00;56.70;;;;;;4987916;28;20034;-80
2022/05/27 12:18:59;;;;;;;12.60;12.00;;;21.20;57.40;;;;;;4988335;28;20046;-80
2022/05/27 12:21:48;;;;;;;11.75;11.05;;;21.30;56.10;;;;;;4976882;28;20034;-80
2022/05/27 12:24:21;;;;;;;11.40;10.70;;;21.00;57.20;;;;;;4979995;28;20030;-80
2022/05/27 12:26:49;;;;;;;11.98;11.10;;;21.20;57.00;;;;;;4992761;28;20579;-80
2022/05/27 12:29:15;;;;;;;11.75;10.95;;;20.90;57.70;;;;;;4992683;28;20494;-80
2022/05/27 12:31:41;;;;;;;12.45;11.40;;;21.00;58.40;;;;;;4987650;28;20049;-80
2022/05/27 12:34:39;;;;;;;11.57;10.68;;;21.10;58.70;;;;;;4988260;28;20030;-80
2022/05/27 12:37:36;;;;;;;11.45;10.75;;;21.10;57.80;;;;;;4980745;28;20489;-80
2022/05/27 12:40:23;;;;;;;11.45;10.68;;;21.10;57.90;;;;;;4988600;28;20034;-80
2022/05/27 12:42:55;;;;;;;11.50;10.75;;;21.00;57.80;;;;;;5039416;28;20034;-81
2022/05/27 12:45:33;;;;;;;11.88;10.80;;;20.90;57.70;;;;;;5044113;28;20048;-81
2022/05/27 12:48:00;;;;;;;11.65;10.95;;;20.90;58.40;;;;;;5012117;28;20458;-82
2022/05/27 12:50:29;;;;;;;11.57;10.88;;;20.90;59.10;;;;;;5011815;28;20097;-81
2022/05/27 12:53:20;;;;;;;12.23;11.43;;;21.10;58.60;;;;;;5009506;28;20036;-82
2022/05/27 13:01:26;;;;;;;11.60;10.90;;;20.50;58.80;;;;;;5004849;28;20034;-82
2022/05/27 13:03:53;;;;;;;11.38;10.57;;;20.50;59.00;;;;;;5011196;28;20025;-82
2022/05/27 13:06:19;;;;;;;11.75;11.00;;;20.60;59.00;;;;;;5013180;28;20600;-82
2022/05/27 13:09:04;;;;;;;10.85;9.93;;;20.60;59.10;;;;;;5011266;28;20030;-82
2022/05/27 13:11:39;;;;;;;11.23;10.50;;;20.50;59.30;;;;;;5011783;28;20049;-80
2022/05/27 13:14:05;;;;;;;11.45;10.75;;;20.40;58.90;;;;;;5011277;28;20022;-80
2022/05/27 13:16:45;;;;;;;11.07;10.30;;;20.30;59.00;;;;;;5010887;28;20064;-80
2022/05/27 13:19:33;;;;;;;10.75;10.15;;;20.50;59.20;;;;;;5028128;28;20038;-79
2022/05/27 13:22:02;;;;;;;11.20;10.50;;;20.60;58.80;;;;;;5025884;28;20034;-80
2022/05/27 13:24:32;;;;;;;11.07;10.27;;;20.50;58.70;;;;;;5014388;28;20022;-80
2022/05/27 13:27:01;;;;;;;11.07;10.13;;;20.40;59.00;;;;;;5028172;28;20049;-80
2022/05/27 13:29:44;;;;;;;10.57;9.93;;;20.30;59.30;;;;;;5012374;28;20300;-80
2022/05/27 13:32:10;;;;;;;10.98;10.38;;;20.50;60.00;;;;;;5011910;28;20244;-80
2022/05/27 13:34:43;;;;;;;10.73;9.98;;;20.50;59.80;;;;;;5010747;28;20041;-80
2022/05/27 13:37:22;;;;;;;11.23;10.38;;;20.60;59.80;;;;;;5028765;28;20026;-80
2022/05/27 13:39:54;;;;;;;10.93;10.25;;;20.70;60.20;;;;;;5011701;28;20034;-80